sensor_id;sensor_type;location;lat;lon;timestamp;P1;durP1;ratioP1;P2;durP2;ratioP2
39848;SDS011;25518;47.878;15.914;2023-11-22T00:01:10;1.90;;;0.90;;
39848;SDS011;25518;47.878;15.914;2023-11-22T00:04:02;1.08;;;0.70;;
39848;SDS011;25518;47.878;15.914;2023-11-22T00:06:55;1.50;;;0.80;;
39848;SDS011;25518;47.878;15.914;2023-11-22T00:09:46;2.80;;;0.97;;
39848;SDS011;25518;47.878;15.914;2023-11-22T00:12:38;1.67;;;0.90;;
39848;SDS011;25518;47.878;15.914;2023-11-22T00:15:29;1.63;;;0.80;;
39848;SDS011;25518;47.878;15.914;2023-11-22T00:18:20;0.80;;;0.50;;
39848;SDS011;25518;47.878;15.914;2023-11-22T00:21:13;1.13;;;0.73;;
39848;SDS011;25518;47.878;15.914;2023-11-22T00:24:04;1.23;;;0.70;;
39848;SDS011;25518;47.878;15.914;2023-11-22T00:26:56;1.27;;;0.80;;
39848;SDS011;25518;47.878;15.914;2023-11-22T00:29:47;2.07;;;0.63;;
39848;SDS011;25518;47.878;15.914;2023-11-22T00:32:38;1.25;;;0.60;;
39848;SDS011;25518;47.878;15.914;2023-11-22T00:35:31;1.17;;;0.63;;
39848;SDS011;25518;47.878;15.914;2023-11-22T00:38:22;1.10;;;0.70;;
39848;SDS011;25518;47.878;15.914;2023-11-22T00:41:14;1.30;;;0.73;;
39848;SDS011;25518;47.878;15.914;2023-11-22T00:44:06;1.20;;;0.60;;
39848;SDS011;25518;47.878;15.914;2023-11-22T00:46:57;0.95;;;0.50;;
39848;SDS011;25518;47.878;15.914;2023-11-22T00:49:48;1.00;;;0.57;;
39848;SDS011;25518;47.878;15.914;2023-11-22T00:52:40;1.23;;;0.70;;
39848;SDS011;25518;47.878;15.914;2023-11-22T00:55:35;0.70;;;0.47;;
39848;SDS011;25518;47.878;15.914;2023-11-22T00:58:26;1.88;;;0.70;;
39848;SDS011;25518;47.878;15.914;2023-11-22T01:01:17;1.17;;;0.65;;
39848;SDS011;25518;47.878;15.914;2023-11-22T01:04:09;2.20;;;0.60;;
39848;SDS011;25518;47.878;15.914;2023-11-22T01:07:01;1.40;;;0.80;;
39848;SDS011;25518;47.878;15.914;2023-11-22T01:09:54;1.88;;;0.80;;
39848;SDS011;25518;47.878;15.914;2023-11-22T01:12:46;2.87;;;0.83;;
39848;SDS011;25518;47.878;15.914;2023-11-22T01:15:38;1.70;;;1.00;;
39848;SDS011;25518;47.878;15.914;2023-11-22T01:18:29;1.35;;;0.80;;
39848;SDS011;25518;47.878;15.914;2023-11-22T01:21:21;1.35;;;1.00;;
39848;SDS011;25518;47.878;15.914;2023-11-22T01:24:12;0.85;;;0.43;;
39848;SDS011;25518;47.878;15.914;2023-11-22T01:27:03;0.80;;;0.40;;
39848;SDS011;25518;47.878;15.914;2023-11-22T01:29:56;1.13;;;0.43;;
39848;SDS011;25518;47.878;15.914;2023-11-22T01:32:47;0.85;;;0.47;;
39848;SDS011;25518;47.878;15.914;2023-11-22T01:35:39;0.38;;;0.38;;
39848;SDS011;25518;47.878;15.914;2023-11-22T01:38:31;0.70;;;0.30;;
39848;SDS011;25518;47.878;15.914;2023-11-22T01:41:22;1.08;;;0.50;;
39848;SDS011;25518;47.878;15.914;2023-11-22T01:44:15;0.90;;;0.40;;
39848;SDS011;25518;47.878;15.914;2023-11-22T01:47:08;1.30;;;0.70;;
39848;SDS011;25518;47.878;15.914;2023-11-22T01:50:00;1.42;;;0.45;;
39848;SDS011;25518;47.878;15.914;2023-11-22T01:52:52;0.75;;;0.40;;
39848;SDS011;25518;47.878;15.914;2023-11-22T01:55:44;1.42;;;0.55;;
39848;SDS011;25518;47.878;15.914;2023-11-22T01:58:38;1.02;;;0.40;;
39848;SDS011;25518;47.878;15.914;2023-11-22T02:01:29;1.48;;;0.73;;
39848;SDS011;25518;47.878;15.914;2023-11-22T02:04:21;1.15;;;0.80;;
39848;SDS011;25518;47.878;15.914;2023-11-22T02:07:13;1.43;;;0.80;;
39848;SDS011;25518;47.878;15.914;2023-11-22T02:10:06;1.45;;;0.70;;
39848;SDS011;25518;47.878;15.914;2023-11-22T02:12:58;0.85;;;0.50;;
39848;SDS011;25518;47.878;15.914;2023-11-22T02:15:49;1.30;;;0.50;;
39848;SDS011;25518;47.878;15.914;2023-11-22T02:18:46;0.88;;;0.50;;
39848;SDS011;25518;47.878;15.914;2023-11-22T02:21:39;1.58;;;0.68;;
39848;SDS011;25518;47.878;15.914;2023-11-22T02:24:30;1.38;;;0.80;;
39848;SDS011;25518;47.878;15.914;2023-11-22T02:27:23;0.82;;;0.45;;
39848;SDS011;25518;47.878;15.914;2023-11-22T02:30:15;0.90;;;0.50;;
39848;SDS011;25518;47.878;15.914;2023-11-22T02:33:07;0.50;;;0.30;;
39848;SDS011;25518;47.878;15.914;2023-11-22T02:35:58;0.75;;;0.40;;
39848;SDS011;25518;47.878;15.914;2023-11-22T02:38:50;0.60;;;0.30;;
39848;SDS011;25518;47.878;15.914;2023-11-22T02:41:41;0.60;;;0.40;;
39848;SDS011;25518;47.878;15.914;2023-11-22T02:44:33;1.02;;;0.50;;
39848;SDS011;25518;47.878;15.914;2023-11-22T02:47:24;2.10;;;0.50;;
39848;SDS011;25518;47.878;15.914;2023-11-22T02:50:16;0.75;;;0.28;;
39848;SDS011;25518;47.878;15.914;2023-11-22T02:53:07;0.73;;;0.30;;
39848;SDS011;25518;47.878;15.914;2023-11-22T02:55:59;0.63;;;0.30;;
39848;SDS011;25518;47.878;15.914;2023-11-22T02:58:51;0.55;;;0.35;;
39848;SDS011;25518;47.878;15.914;2023-11-22T03:01:42;0.50;;;0.30;;
39848;SDS011;25518;47.878;15.914;2023-11-22T03:04:36;1.00;;;0.50;;
39848;SDS011;25518;47.878;15.914;2023-11-22T03:07:28;0.87;;;0.43;;
39848;SDS011;25518;47.878;15.914;2023-11-22T03:10:20;1.00;;;0.50;;
39848;SDS011;25518;47.878;15.914;2023-11-22T03:13:12;0.90;;;0.60;;
39848;SDS011;25518;47.878;15.914;2023-11-22T03:16:03;1.52;;;0.80;;
39848;SDS011;25518;47.878;15.914;2023-11-22T03:18:54;0.98;;;0.30;;
39848;SDS011;25518;47.878;15.914;2023-11-22T03:21:48;0.93;;;0.53;;
39848;SDS011;25518;47.878;15.914;2023-11-22T03:24:40;0.75;;;0.50;;
39848;SDS011;25518;47.878;15.914;2023-11-22T03:27:31;1.40;;;0.60;;
39848;SDS011;25518;47.878;15.914;2023-11-22T03:30:23;0.60;;;0.20;;
39848;SDS011;25518;47.878;15.914;2023-11-22T03:33:14;0.73;;;0.45;;
39848;SDS011;25518;47.878;15.914;2023-11-22T03:36:05;1.02;;;0.50;;
39848;SDS011;25518;47.878;15.914;2023-11-22T03:38:57;1.27;;;0.70;;
39848;SDS011;25518;47.878;15.914;2023-11-22T03:41:48;1.40;;;0.70;;
39848;SDS011;25518;47.878;15.914;2023-11-22T03:44:41;1.90;;;1.10;;
39848;SDS011;25518;47.878;15.914;2023-11-22T03:47:32;1.67;;;1.00;;
39848;SDS011;25518;47.878;15.914;2023-11-22T03:50:24;2.55;;;1.00;;
39848;SDS011;25518;47.878;15.914;2023-11-22T03:53:15;2.10;;;1.10;;
39848;SDS011;25518;47.878;15.914;2023-11-22T03:56:07;2.03;;;1.10;;
39848;SDS011;25518;47.878;15.914;2023-11-22T03:58:58;1.80;;;1.10;;
39848;SDS011;25518;47.878;15.914;2023-11-22T04:01:50;2.13;;;1.20;;
39848;SDS011;25518;47.878;15.914;2023-11-22T04:04:41;1.90;;;0.90;;
39848;SDS011;25518;47.878;15.914;2023-11-22T04:07:33;2.42;;;0.93;;
39848;SDS011;25518;47.878;15.914;2023-11-22T04:10:24;1.60;;;0.80;;
39848;SDS011;25518;47.878;15.914;2023-11-22T04:13:15;1.07;;;0.60;;
39848;SDS011;25518;47.878;15.914;2023-11-22T04:16:07;1.00;;;0.60;;
39848;SDS011;25518;47.878;15.914;2023-11-22T04:18:59;2.63;;;1.10;;
39848;SDS011;25518;47.878;15.914;2023-11-22T04:21:50;0.75;;;0.30;;
39848;SDS011;25518;47.878;15.914;2023-11-22T04:24:41;0.20;;;0.10;;
39848;SDS011;25518;47.878;15.914;2023-11-22T04:27:33;0.55;;;0.30;;
39848;SDS011;25518;47.878;15.914;2023-11-22T04:30:25;0.28;;;0.20;;
39848;SDS011;25518;47.878;15.914;2023-11-22T04:33:17;0.47;;;0.30;;
39848;SDS011;25518;47.878;15.914;2023-11-22T04:36:08;0.28;;;0.20;;
39848;SDS011;25518;47.878;15.914;2023-11-22T04:39:00;0.20;;;0.20;;
39848;SDS011;25518;47.878;15.914;2023-11-22T04:41:51;0.43;;;0.28;;
39848;SDS011;25518;47.878;15.914;2023-11-22T04:44:42;0.38;;;0.25;;
39848;SDS011;25518;47.878;15.914;2023-11-22T04:47:33;0.20;;;0.20;;
39848;SDS011;25518;47.878;15.914;2023-11-22T04:50:25;0.30;;;0.20;;
39848;SDS011;25518;47.878;15.914;2023-11-22T04:53:16;0.22;;;0.22;;
39848;SDS011;25518;47.878;15.914;2023-11-22T04:56:09;0.40;;;0.20;;
39848;SDS011;25518;47.878;15.914;2023-11-22T04:59:00;0.33;;;0.33;;
39848;SDS011;25518;47.878;15.914;2023-11-22T05:01:52;0.20;;;0.20;;
39848;SDS011;25518;47.878;15.914;2023-11-22T05:04:44;0.45;;;0.35;;
39848;SDS011;25518;47.878;15.914;2023-11-22T05:07:39;0.50;;;0.30;;
39848;SDS011;25518;47.878;15.914;2023-11-22T05:10:30;0.50;;;0.30;;
39848;SDS011;25518;47.878;15.914;2023-11-22T05:13:22;0.30;;;0.20;;
39848;SDS011;25518;47.878;15.914;2023-11-22T05:16:13;0.20;;;0.20;;
39848;SDS011;25518;47.878;15.914;2023-11-22T05:19:04;1.88;;;0.38;;
39848;SDS011;25518;47.878;15.914;2023-11-22T05:21:56;0.30;;;0.30;;
39848;SDS011;25518;47.878;15.914;2023-11-22T05:24:48;0.80;;;0.22;;
39848;SDS011;25518;47.878;15.914;2023-11-22T05:27:40;0.60;;;0.20;;
39848;SDS011;25518;47.878;15.914;2023-11-22T05:30:31;0.47;;;0.28;;
39848;SDS011;25518;47.878;15.914;2023-11-22T05:33:23;0.25;;;0.20;;
39848;SDS011;25518;47.878;15.914;2023-11-22T05:36:14;0.20;;;0.10;;
39848;SDS011;25518;47.878;15.914;2023-11-22T05:39:07;0.40;;;0.20;;
39848;SDS011;25518;47.878;15.914;2023-11-22T05:41:59;0.30;;;0.10;;
39848;SDS011;25518;47.878;15.914;2023-11-22T05:44:51;0.32;;;0.28;;
39848;SDS011;25518;47.878;15.914;2023-11-22T05:47:43;0.40;;;0.10;;
39848;SDS011;25518;47.878;15.914;2023-11-22T05:50:34;0.13;;;0.10;;
39848;SDS011;25518;47.878;15.914;2023-11-22T05:53:25;0.20;;;0.20;;
39848;SDS011;25518;47.878;15.914;2023-11-22T05:56:17;0.10;;;0.10;;
39848;SDS011;25518;47.878;15.914;2023-11-22T05:59:09;0.10;;;0.10;;
39848;SDS011;25518;47.878;15.914;2023-11-22T06:02:00;0.17;;;0.08;;
39848;SDS011;25518;47.878;15.914;2023-11-22T06:04:52;0.30;;;0.20;;
39848;SDS011;25518;47.878;15.914;2023-11-22T06:07:43;0.38;;;0.17;;
39848;SDS011;25518;47.878;15.914;2023-11-22T06:10:34;0.10;;;0.10;;
39848;SDS011;25518;47.878;15.914;2023-11-22T06:13:26;0.60;;;0.10;;
39848;SDS011;25518;47.878;15.914;2023-11-22T06:16:18;0.30;;;0.20;;
39848;SDS011;25518;47.878;15.914;2023-11-22T06:19:09;0.05;;;0.00;;
39848;SDS011;25518;47.878;15.914;2023-11-22T06:22:00;0.40;;;0.40;;
39848;SDS011;25518;47.878;15.914;2023-11-22T06:24:52;0.20;;;0.20;;
39848;SDS011;25518;47.878;15.914;2023-11-22T06:27:43;0.43;;;0.22;;
39848;SDS011;25518;47.878;15.914;2023-11-22T06:30:34;0.85;;;0.20;;
39848;SDS011;25518;47.878;15.914;2023-11-22T06:33:25;0.67;;;0.27;;
39848;SDS011;25518;47.878;15.914;2023-11-22T06:36:17;0.30;;;0.30;;
39848;SDS011;25518;47.878;15.914;2023-11-22T06:39:08;0.50;;;0.35;;
39848;SDS011;25518;47.878;15.914;2023-11-22T06:42:00;0.40;;;0.32;;
39848;SDS011;25518;47.878;15.914;2023-11-22T06:44:52;0.52;;;0.30;;
39848;SDS011;25518;47.878;15.914;2023-11-22T06:47:44;0.40;;;0.32;;
39848;SDS011;25518;47.878;15.914;2023-11-22T06:50:35;0.57;;;0.40;;
39848;SDS011;25518;47.878;15.914;2023-11-22T06:53:27;0.30;;;0.20;;
39848;SDS011;25518;47.878;15.914;2023-11-22T06:56:18;0.15;;;0.15;;
39848;SDS011;25518;47.878;15.914;2023-11-22T06:59:09;0.60;;;0.40;;
39848;SDS011;25518;47.878;15.914;2023-11-22T07:02:00;0.50;;;0.30;;
39848;SDS011;25518;47.878;15.914;2023-11-22T07:04:52;0.80;;;0.40;;
39848;SDS011;25518;47.878;15.914;2023-11-22T07:07:43;0.70;;;0.30;;
39848;SDS011;25518;47.878;15.914;2023-11-22T07:10:35;0.30;;;0.20;;
39848;SDS011;25518;47.878;15.914;2023-11-22T07:13:26;0.47;;;0.30;;
39848;SDS011;25518;47.878;15.914;2023-11-22T07:16:18;0.20;;;0.20;;
39848;SDS011;25518;47.878;15.914;2023-11-22T07:19:10;0.28;;;0.22;;
39848;SDS011;25518;47.878;15.914;2023-11-22T07:22:04;0.40;;;0.30;;
39848;SDS011;25518;47.878;15.914;2023-11-22T07:25:06;0.40;;;0.20;;
39848;SDS011;25518;47.878;15.914;2023-11-22T07:27:58;0.45;;;0.30;;
39848;SDS011;25518;47.878;15.914;2023-11-22T07:30:50;0.10;;;0.10;;
39848;SDS011;25518;47.878;15.914;2023-11-22T07:33:42;0.38;;;0.30;;
39848;SDS011;25518;47.878;15.914;2023-11-22T07:36:33;0.45;;;0.20;;
39848;SDS011;25518;47.878;15.914;2023-11-22T07:39:25;0.40;;;0.30;;
39848;SDS011;25518;47.878;15.914;2023-11-22T07:42:18;0.20;;;0.20;;
39848;SDS011;25518;47.878;15.914;2023-11-22T07:45:10;0.40;;;0.20;;
39848;SDS011;25518;47.878;15.914;2023-11-22T07:48:02;0.30;;;0.20;;
39848;SDS011;25518;47.878;15.914;2023-11-22T07:50:55;0.25;;;0.20;;
39848;SDS011;25518;47.878;15.914;2023-11-22T07:53:46;0.10;;;0.10;;
39848;SDS011;25518;47.878;15.914;2023-11-22T07:56:38;0.60;;;0.20;;
39848;SDS011;25518;47.878;15.914;2023-11-22T07:59:29;0.20;;;0.17;;
39848;SDS011;25518;47.878;15.914;2023-11-22T08:02:21;0.77;;;0.28;;
39848;SDS011;25518;47.878;15.914;2023-11-22T08:05:13;0.30;;;0.10;;
39848;SDS011;25518;47.878;15.914;2023-11-22T08:08:05;0.40;;;0.20;;
39848;SDS011;25518;47.878;15.914;2023-11-22T08:10:58;0.20;;;0.20;;
39848;SDS011;25518;47.878;15.914;2023-11-22T08:13:50;0.82;;;0.30;;
39848;SDS011;25518;47.878;15.914;2023-11-22T08:16:41;0.20;;;0.17;;
39848;SDS011;25518;47.878;15.914;2023-11-22T08:19:33;0.10;;;0.10;;
39848;SDS011;25518;47.878;15.914;2023-11-22T08:22:24;0.20;;;0.10;;
39848;SDS011;25518;47.878;15.914;2023-11-22T08:25:19;0.20;;;0.20;;
39848;SDS011;25518;47.878;15.914;2023-11-22T08:28:10;0.33;;;0.23;;
39848;SDS011;25518;47.878;15.914;2023-11-22T08:31:01;0.20;;;0.10;;
39848;SDS011;25518;47.878;15.914;2023-11-22T08:33:54;0.60;;;0.20;;
39848;SDS011;25518;47.878;15.914;2023-11-22T08:36:46;0.65;;;0.35;;
39848;SDS011;25518;47.878;15.914;2023-11-22T08:39:37;0.35;;;0.35;;
39848;SDS011;25518;47.878;15.914;2023-11-22T08:42:29;0.43;;;0.20;;
39848;SDS011;25518;47.878;15.914;2023-11-22T08:45:21;0.30;;;0.20;;
39848;SDS011;25518;47.878;15.914;2023-11-22T08:48:12;0.50;;;0.30;;
39848;SDS011;25518;47.878;15.914;2023-11-22T08:51:05;0.80;;;0.30;;
39848;SDS011;25518;47.878;15.914;2023-11-22T08:53:58;0.60;;;0.40;;
39848;SDS011;25518;47.878;15.914;2023-11-22T08:56:50;0.30;;;0.20;;
39848;SDS011;25518;47.878;15.914;2023-11-22T08:59:42;0.43;;;0.30;;
39848;SDS011;25518;47.878;15.914;2023-11-22T09:02:33;0.30;;;0.20;;
39848;SDS011;25518;47.878;15.914;2023-11-22T09:05:24;0.20;;;0.20;;
39848;SDS011;25518;47.878;15.914;2023-11-22T09:08:17;0.80;;;0.50;;
39848;SDS011;25518;47.878;15.914;2023-11-22T09:11:10;0.40;;;0.30;;
39848;SDS011;25518;47.878;15.914;2023-11-22T09:14:01;0.40;;;0.28;;
39848;SDS011;25518;47.878;15.914;2023-11-22T09:16:55;0.30;;;0.20;;
39848;SDS011;25518;47.878;15.914;2023-11-22T09:19:47;0.50;;;0.40;;
39848;SDS011;25518;47.878;15.914;2023-11-22T09:22:46;0.40;;;0.30;;
39848;SDS011;25518;47.878;15.914;2023-11-22T09:25:38;1.53;;;0.50;;
39848;SDS011;25518;47.878;15.914;2023-11-22T09:28:30;0.85;;;0.52;;
39848;SDS011;25518;47.878;15.914;2023-11-22T09:31:22;1.35;;;0.80;;
39848;SDS011;25518;47.878;15.914;2023-11-22T09:34:14;1.15;;;0.60;;
39848;SDS011;25518;47.878;15.914;2023-11-22T09:37:05;0.90;;;0.50;;
39848;SDS011;25518;47.878;15.914;2023-11-22T09:39:57;0.63;;;0.43;;
39848;SDS011;25518;47.878;15.914;2023-11-22T09:42:48;1.45;;;0.60;;
39848;SDS011;25518;47.878;15.914;2023-11-22T09:45:43;1.90;;;0.90;;
39848;SDS011;25518;47.878;15.914;2023-11-22T10:09:19;1.52;;;0.93;;
39848;SDS011;25518;47.878;15.914;2023-11-22T10:12:18;1.50;;;0.80;;
39848;SDS011;25518;47.878;15.914;2023-11-22T10:15:12;1.02;;;0.60;;
39848;SDS011;25518;47.878;15.914;2023-11-22T10:18:04;0.90;;;0.50;;
39848;SDS011;25518;47.878;15.914;2023-11-22T10:20:57;2.55;;;1.10;;
39848;SDS011;25518;47.878;15.914;2023-11-22T10:23:55;1.35;;;0.68;;
39848;SDS011;25518;47.878;15.914;2023-11-22T10:26:47;0.98;;;0.65;;
39848;SDS011;25518;47.878;15.914;2023-11-22T10:29:41;1.63;;;0.90;;
39848;SDS011;25518;47.878;15.914;2023-11-22T10:32:36;1.57;;;0.70;;
39848;SDS011;25518;47.878;15.914;2023-11-22T10:35:29;2.20;;;0.87;;
39848;SDS011;25518;47.878;15.914;2023-11-22T10:38:21;5.88;;;2.83;;
39848;SDS011;25518;47.878;15.914;2023-11-22T10:41:13;1.42;;;0.80;;
39848;SDS011;25518;47.878;15.914;2023-11-22T10:44:04;1.38;;;0.75;;
39848;SDS011;25518;47.878;15.914;2023-11-22T10:46:57;1.30;;;0.77;;
39848;SDS011;25518;47.878;15.914;2023-11-22T10:49:49;1.65;;;0.85;;
